Time;durP1;ratioP1;P1;durP2;ratioP2;P2;SDS_P1;SDS_P2;PMS_P1;PMS_P2;Temp;Humidity;BMP_temperature;BMP_pressure;BME280_temperature;BME280_humidity;BME280_pressure;Samples;Min_cycle;Max_cycle;Signal;HPM_P1;HPM_P2
2022/11/02 00:00:56;;;;;;;7.55;3.22;;;;;;;13.36;70.03;95122.50;5093548;28;20253;-61
2022/11/02 00:03:22;;;;;;;7.60;3.20;;;;;;;13.55;69.46;95147.25;5093046;28;20698;-59
2022/11/02 00:05:47;;;;;;;6.18;3.00;;;;;;;13.60;70.18;95128.94;5093370;28;20212;-59
2022/11/02 00:08:13;;;;;;;11.73;3.50;;;;;;;13.59;69.85;95140.09;5093132;28;20210;-60
2022/11/02 00:10:38;;;;;;;10.00;3.70;;;;;;;13.36;71.01;95114.84;5091764;28;20216;-59
2022/11/02 00:13:03;;;;;;;11.97;3.53;;;;;;;13.41;69.78;95142.56;5092817;28;20184;-60
2022/11/02 00:15:33;;;;;;;8.75;3.60;;;;;;;13.52;69.56;95154.34;5092808;28;20250;-58
2022/11/02 00:18:03;;;;;;;8.35;3.60;;;;;;;13.43;69.19;95138.91;5092808;28;20192;-58
2022/11/02 00:20:28;;;;;;;7.70;3.47;;;;;;;13.36;69.47;95149.78;5092706;28;20220;-61
2022/11/02 00:22:57;;;;;;;9.82;4.00;;;;;;;13.40;69.00;95164.72;5092695;28;20257;-62
2022/11/02 00:25:24;;;;;;;10.53;3.73;;;;;;;13.46;68.92;95160.81;5108535;28;20306;-59
2022/11/02 00:27:50;;;;;;;5.75;3.17;;;;;;;13.63;68.46;95178.03;5092671;28;20722;-59
2022/11/02 00:30:15;;;;;;;12.05;4.22;;;;;;;13.69;67.92;95192.00;5108362;28;20216;-61
2022/11/02 00:32:41;;;;;;;9.70;3.33;;;;;;;13.64;68.13;95178.81;5092882;28;20267;-61
2022/11/02 00:35:07;;;;;;;9.32;3.35;;;;;;;13.55;68.68;95170.25;5092527;28;20234;-61
2022/11/02 00:37:33;;;;;;;11.38;3.13;;;;;;;13.62;67.37;95196.03;5091154;28;20223;-61
2022/11/02 00:39:58;;;;;;;6.55;3.72;;;;;;;13.47;67.62;95187.97;5092315;28;20244;-62
2022/11/02 00:42:23;;;;;;;10.00;2.83;;;;;;;13.45;67.94;95185.53;5090958;28;20195;-61
2022/11/02 00:44:49;;;;;;;7.72;3.15;;;;;;;13.37;68.25;95159.88;5091660;28;20243;-60
2022/11/02 00:47:14;;;;;;;8.43;3.03;;;;;;;13.26;68.83;95157.47;5092408;28;20603;-61
2022/11/02 00:49:40;;;;;;;9.93;3.15;;;;;;;13.37;68.02;95162.41;5092538;28;20236;-60
2022/11/02 00:52:06;;;;;;;7.53;3.60;;;;;;;13.26;69.03;95139.59;5092248;28;20184;-59
2022/11/02 00:54:31;;;;;;;8.83;3.30;;;;;;;13.22;70.38;95120.38;5092188;28;20216;-61
2022/11/02 00:56:56;;;;;;;5.53;3.08;;;;;;;13.14;70.05;95127.88;5089667;28;20184;-61
2022/11/02 00:59:22;;;;;;;6.43;2.90;;;;;;;13.10;70.44;95112.97;5089546;28;20212;-58
2022/11/02 01:01:48;;;;;;;7.28;3.47;;;;;;;13.08;70.83;95115.66;5092016;28;20535;-61
2022/11/02 01:04:14;;;;;;;8.23;2.90;;;;;;;12.95;71.26;95084.44;5091000;28;20208;-62
2022/11/02 01:06:41;;;;;;;7.05;3.05;;;;;;;13.05;72.32;95081.94;5091878;28;20226;-61
2022/11/02 01:09:07;;;;;;;7.68;3.20;;;;;;;12.94;71.88;95084.59;5091835;28;20247;-61
2022/11/02 01:11:33;;;;;;;10.77;4.53;;;;;;;12.96;71.97;95083.53;5090484;28;20658;-61
2022/11/02 01:13:58;;;;;;;9.37;3.50;;;;;;;12.89;72.35;95072.22;5092037;28;20296;-64
2022/11/02 01:16:24;;;;;;;10.07;3.90;;;;;;;12.91;72.79;95065.22;5092450;28;20195;-62
2022/11/02 01:18:53;;;;;;;11.40;3.35;;;;;;;12.90;73.18;95062.81;5092086;28;20294;-63
2022/11/02 01:21:20;;;;;;;9.53;3.73;;;;;;;12.98;73.48;95068.06;5092200;28;20192;-60
2022/11/02 01:23:45;;;;;;;8.80;3.38;;;;;;;12.85;74.50;95047.91;5091896;28;20208;-62
2022/11/02 01:26:11;;;;;;;11.52;3.25;;;;;;;12.73;74.18;95051.53;5068376;22;20237;-62
2022/11/02 01:28:38;;;;;;;9.57;3.00;;;;;;;12.61;74.52;95042.38;5031695;28;20197;-61
2022/11/02 01:31:05;;;;;;;10.88;3.60;;;;;;;12.77;73.66;95075.84;5031784;28;20629;-61
2022/11/02 01:33:30;;;;;;;7.00;3.30;;;;;;;12.73;73.05;95068.56;5031456;28;20190;-63
2022/11/02 01:35:56;;;;;;;13.07;3.60;;;;;;;12.75;73.22;95076.91;5013776;28;20279;-63
2022/11/02 01:38:21;;;;;;;9.17;3.10;;;;;;;12.60;73.69;95071.41;5031533;28;20190;-61
2022/11/02 01:40:47;;;;;;;16.53;3.30;;;;;;;12.57;74.02;95054.59;5031825;28;20225;-61
2022/11/02 01:43:21;;;;;;;8.87;3.60;;;;;;;12.55;73.96;95055.66;5031460;28;20663;-63
2022/11/02 01:45:51;;;;;;;9.33;3.80;;;;;;;12.58;73.90;95052.88;5031644;28;20244;-60
2022/11/02 01:48:20;;;;;;;8.33;3.57;;;;;;;12.72;72.72;95075.44;5031258;28;20226;-60
2022/11/02 01:50:46;;;;;;;8.63;3.83;;;;;;;12.68;72.90;95082.53;5031489;28;20222;-62
2022/11/02 01:53:11;;;;;;;8.67;3.57;;;;;;;12.88;71.99;95096.13;5031346;28;20190;-60
2022/11/02 01:55:39;;;;;;;5.97;3.40;;;;;;;12.94;71.83;95094.78;5068536;22;20243;-60
2022/11/02 01:58:09;;;;;;;8.73;3.33;;;;;;;12.82;72.94;95072.88;5070773;28;20184;-60
2022/11/02 02:00:36;;;;;;;7.30;3.53;;;;;;;12.89;72.77;95077.31;5070815;28;20285;-59
2022/11/02 02:03:11;;;;;;;7.70;3.17;;;;;;;13.00;72.89;95073.84;5070811;28;20251;-59
2022/11/02 02:05:46;;;;;;;7.00;3.57;;;;;;;12.91;71.95;95095.84;5070913;28;20232;-59
2022/11/02 02:08:16;;;;;;;9.00;3.70;;;;;;;12.81;72.00;95089.94;5070988;28;20207;-60
2022/11/02 02:10:42;;;;;;;9.20;3.50;;;;;;;12.63;73.37;95060.91;5070913;28;20674;-61
2022/11/02 02:13:08;;;;;;;10.50;3.70;;;;;;;12.66;73.54;95060.66;5070914;28;20286;-61
2022/11/02 02:15:42;;;;;;;9.50;3.67;;;;;;;12.73;72.08;95096.63;5070710;28;20303;-60
2022/11/02 02:18:20;;;;;;;8.50;3.87;;;;;;;12.61;73.19;95073.00;5070693;28;20223;-60
2022/11/02 02:21:13;;;;;;;16.67;4.17;;;;;;;12.58;73.81;95047.75;5070625;28;20232;-60
2022/11/02 02:23:49;;;;;;;9.20;3.50;;;;;;;12.69;73.15;95068.03;5070553;28;20219;-60
2022/11/02 02:26:18;;;;;;;9.37;3.83;;;;;;;12.51;74.00;95050.03;5070674;28;20279;-59
2022/11/02 02:29:21;;;;;;;9.80;3.97;;;;;;;12.68;74.18;95050.31;5070676;28;20196;-61
2022/11/02 02:32:04;;;;;;;7.25;3.38;;;;;;;12.68;72.96;95066.44;5043228;28;20224;-60
2022/11/02 02:34:37;;;;;;;9.95;3.85;;;;;;;12.58;73.16;95075.81;5069557;28;20216;-62
2022/11/02 02:37:06;;;;;;;11.70;3.97;;;;;;;12.66;72.17;95086.16;5070558;28;20280;-62
2022/11/02 02:39:44;;;;;;;7.97;3.70;;;;;;;12.50;72.34;95076.44;5070760;28;20240;-59
2022/11/02 02:42:33;;;;;;;7.38;3.53;;;;;;;12.48;72.92;95080.88;5070574;28;20185;-60
2022/11/02 02:45:13;;;;;;;8.40;3.33;;;;;;;12.42;72.59;95080.63;5070376;28;20213;-58
2022/11/02 02:47:47;;;;;;;9.73;3.50;;;;;;;12.40;72.60;95077.41;5070351;28;20191;-59
2022/11/02 02:50:25;;;;;;;11.30;3.30;;;;;;;12.25;72.82;95063.38;5070127;28;20266;-59
2022/11/02 02:52:51;;;;;;;13.00;3.43;;;;;;;12.25;73.32;95060.84;5070259;28;20235;-59
2022/11/02 02:55:22;;;;;;;6.27;3.17;;;;;;;12.11;74.60;95030.59;5070944;28;20675;-58
2022/11/02 02:57:48;;;;;;;8.83;3.67;;;;;;;12.16;74.94;95026.72;5052278;28;20200;-62
2022/11/02 03:00:16;;;;;;;10.90;3.17;;;;;;;12.23;74.79;95029.56;5070064;28;20227;-60
2022/11/02 03:02:59;;;;;;;10.07;3.10;;;;;;;12.12;75.69;95007.53;5051933;28;20274;-61
2022/11/02 03:05:27;;;;;;;8.43;2.97;;;;;;;12.15;76.00;95014.94;5070111;28;20209;-61
2022/11/02 03:07:54;;;;;;;8.30;3.70;;;;;;;12.03;76.73;94999.88;5072641;28;20224;-61
2022/11/02 03:10:27;;;;;;;10.53;3.67;;;;;;;12.13;76.52;95011.72;5055446;28;20229;-61
2022/11/02 03:12:58;;;;;;;7.60;3.03;;;;;;;11.97;77.21;94996.13;5073682;28;20677;-59
2022/11/02 03:15:32;;;;;;;7.67;3.43;;;;;;;11.88;78.44;94976.50;5073913;28;20715;-58
2022/11/02 03:18:14;;;;;;;6.47;3.20;;;;;;;11.94;78.85;94975.19;5073411;28;20196;-59
2022/11/02 03:20:55;;;;;;;7.23;3.63;;;;;;;12.02;78.90;94981.22;5073765;28;20217;-59
2022/11/02 03:23:30;;;;;;;13.50;3.50;;;;;;;12.27;77.80;95005.44;5073743;28;20251;-62
2022/11/02 03:26:10;;;;;;;8.97;3.17;;;;;;;12.40;77.92;95016.19;5056535;28;20196;-61
2022/11/02 03:28:57;;;;;;;11.17;3.50;;;;;;;12.45;76.90;95039.53;5055479;28;20207;-58
2022/11/02 03:31:37;;;;;;;10.23;3.23;;;;;;;12.15;78.33;95014.13;5073547;28;20245;-59
2022/11/02 03:34:21;;;;;;;7.93;3.40;;;;;;;12.17;79.11;95002.88;5073553;28;20701;-60
2022/11/02 03:36:53;;;;;;;8.30;3.70;;;;;;;12.22;77.70;95025.41;5073198;28;20189;-58
2022/11/02 03:39:28;;;;;;;9.47;3.83;;;;;;;12.01;79.71;94986.47;5073315;28;20609;-59
2022/11/02 03:41:55;;;;;;;14.60;4.07;;;;;;;11.90;80.50;94976.38;5073031;28;20261;-59
2022/11/02 03:44:25;;;;;;;19.60;4.73;;;;;;;11.94;79.93;94993.03;5073064;28;20221;-59
2022/11/02 03:46:58;;;;;;;17.60;4.53;;;;;;;11.87;80.69;94986.81;5073031;28;20212;-58
2022/11/02 03:49:26;;;;;;;11.30;3.73;;;;;;;11.97;79.95;95001.22;5073002;28;20318;-60
2022/11/02 03:51:53;;;;;;;7.93;3.60;;;;;;;12.12;79.90;95019.50;5072920;28;20199;-61
2022/11/02 03:54:43;;;;;;;13.87;3.80;;;;;;;11.87;80.41;94992.72;5072911;28;20208;-58
2022/11/02 03:57:16;;;;;;;14.90;4.87;;;;;;;11.88;81.61;94980.81;5072962;28;20287;-60
2022/11/02 03:59:42;;;;;;;9.60;3.77;;;;;;;11.69;83.20;94950.97;5073117;28;20686;-61
2022/11/02 04:02:10;;;;;;;9.00;4.40;;;;;;;11.75;83.39;94964.00;5072636;28;20189;-60
2022/11/02 04:04:45;;;;;;;9.93;3.43;;;;;;;12.07;82.27;94994.41;5072767;28;20221;-61
2022/11/02 04:07:11;;;;;;;8.30;4.30;;;;;;;12.03;80.99;95010.88;5072650;28;20177;-60
2022/11/02 04:09:37;;;;;;;11.53;4.43;;;;;;;11.81;81.94;94995.78;5071111;28;20231;-60
2022/11/02 04:14:46;;;;;;;11.43;4.97;;;;;;;11.72;82.95;94981.25;5072639;28;20249;-60
2022/11/02 04:19:56;;;;;;;6.63;3.50;;;;;;;11.52;81.98;94999.91;5072164;28;20216;-59
2022/11/02 04:25:19;;;;;;;5.60;3.93;;;;;;;11.46;82.91;94985.97;5057530;28;20570;-59
2022/11/02 04:27:52;;;;;;;7.57;2.90;;;;;;;11.47;82.40;95017.31;5072406;28;20185;-58
2022/11/02 04:30:21;;;;;;;9.50;3.70;;;;;;;11.48;84.60;94979.00;5072462;28;20211;-58
2022/11/02 04:35:34;;;;;;;12.23;4.20;;;;;;;11.34;84.28;95002.25;5072443;28;20296;-59
2022/11/02 04:40:45;;;;;;;6.17;3.30;;;;;;;11.53;83.07;95017.59;5072234;28;20258;-62
2022/11/02 04:43:11;;;;;;;9.07;3.80;;;;;;;11.45;83.60;95012.34;5072083;28;20303;-61
2022/11/02 04:45:37;;;;;;;11.17;4.77;;;;;;;11.44;84.19;95017.56;5072151;28;20219;-61
2022/11/02 04:48:04;;;;;;;12.57;6.63;;;;;;;10.84;88.89;94952.94;5071990;28;20192;-61
2022/11/02 04:50:30;;;;;;;19.27;6.37;;;;;;;10.41;93.77;94992.88;5071699;28;20208;-58
2022/11/02 04:53:01;;;;;;;10.13;6.27;;;;;;;10.53;94.55;95027.50;5072257;28;20196;-60
2022/11/02 04:55:27;;;;;;;13.87;6.47;;;;;;;10.49;94.02;95022.75;5053816;28;20274;-59
2022/11/02 04:57:52;;;;;;;11.57;6.33;;;;;;;10.67;92.51;95036.56;5071898;28;20188;-59
2022/11/02 05:00:19;;;;;;;19.00;7.30;;;;;;;10.82;91.02;95053.19;5071670;28;20209;-59
2022/11/02 05:02:49;;;;;;;9.90;5.60;;;;;;;10.83;92.01;95044.59;5071794;28;20223;-59
2022/11/02 05:05:16;;;;;;;18.37;6.23;;;;;;;10.87;91.28;95059.50;5072171;28;20217;-61
2022/11/02 05:07:41;;;;;;;12.47;6.50;;;;;;;10.98;90.16;95072.19;5071742;28;20704;-61
2022/11/02 05:10:15;;;;;;;12.10;6.73;;;;;;;10.94;90.18;95070.81;5071379;28;20220;-62
2022/11/02 05:12:40;;;;;;;17.10;6.33;;;;;;;10.97;90.72;95070.56;5071770;28;20223;-62
2022/11/02 05:15:06;;;;;;;11.63;6.33;;;;;;;11.08;89.68;95082.44;5071762;28;20687;-61
2022/11/02 05:17:32;;;;;;;15.60;7.33;;;;;;;10.96;90.89;95075.78;5071543;28;20216;-61
2022/11/02 05:19:57;;;;;;;12.53;7.07;;;;;;;10.96;91.59;95070.69;5071486;28;20249;-60
2022/11/02 05:22:23;;;;;;;14.57;7.00;;;;;;;11.35;88.65;95115.06;5071401;28;20574;-61
2022/11/02 05:24:48;;;;;;;10.87;6.63;;;;;;;11.54;86.66;95144.00;5071266;28;20215;-61
2022/11/02 05:27:14;;;;;;;15.07;8.03;;;;;;;11.46;87.59;95128.53;5071376;28;20189;-60
2022/11/02 05:29:39;;;;;;;16.47;6.27;;;;;;;11.39;87.56;95124.84;5069847;28;20220;-61
2022/11/02 05:32:05;;;;;;;15.73;6.40;;;;;;;11.58;88.08;95127.53;5053259;28;20216;-61
2022/11/02 05:34:30;;;;;;;10.07;5.23;;;;;;;11.64;87.10;95146.59;5071465;28;20239;-59
2022/11/02 05:36:55;;;;;;;11.50;5.57;;;;;;;11.62;86.17;95154.38;5071255;28;20186;-60
2022/11/02 05:39:21;;;;;;;13.23;6.43;;;;;;;11.62;86.39;95148.47;5071330;28;20224;-60
2022/11/02 05:41:46;;;;;;;16.70;7.33;;;;;;;11.80;85.62;95164.81;5053247;28;20189;-59
2022/11/02 05:44:12;;;;;;;13.27;6.57;;;;;;;11.78;85.30;95162.41;5053125;28;20299;-58
2022/11/02 05:46:37;;;;;;;12.93;6.40;;;;;;;11.82;85.51;95166.31;5070940;28;20566;-59
2022/11/02 05:49:02;;;;;;;12.67;6.20;;;;;;;11.86;85.90;95159.22;5071006;28;20236;-61
2022/11/02 05:51:28;;;;;;;19.17;7.60;;;;;;;11.88;92.74;95057.22;5071341;28;20204;-59
2022/11/02 05:53:53;;;;;;;20.00;8.23;;;;;;;11.85;89.03;95136.44;5070965;28;20247;-60
2022/11/02 05:56:19;;;;;;;18.50;8.20;;;;;;;11.47;88.19;95149.72;5071259;28;20176;-65
2022/11/02 05:58:44;;;;;;;19.77;8.67;;;;;;;11.52;88.22;95152.69;5071113;28;20712;-61
2022/11/02 06:01:10;;;;;;;18.67;8.23;;;;;;;11.25;89.78;95130.22;5052970;28;20183;-62
2022/11/02 06:03:36;;;;;;;23.33;8.93;;;;;;;11.38;89.13;95141.06;5070873;28;20220;-61
2022/11/02 06:06:04;;;;;;;27.60;8.87;;;;;;;11.49;91.37;95155.47;5070867;28;20181;-62
2022/11/02 06:08:32;;;;;;;21.93;8.50;;;;;;;11.27;91.32;95150.50;5070900;28;20184;-62
2022/11/02 06:10:58;;;;;;;19.73;8.97;;;;;;;11.61;89.47;95185.88;5070695;28;20192;-60
2022/11/02 06:13:24;;;;;;;19.57;8.83;;;;;;;11.83;88.29;95197.72;5070586;28;20221;-63
2022/11/02 06:15:49;;;;;;;19.03;9.70;;;;;;;12.07;86.17;95228.84;5070661;28;20228;-62
2022/11/02 06:18:15;;;;;;;21.47;10.30;;;;;;;12.33;84.49;95242.00;5053234;28;20219;-60
2022/11/02 06:20:40;;;;;;;29.97;10.30;;;;;;;12.40;84.67;95238.03;5070966;28;20196;-60
2022/11/02 06:23:06;;;;;;;22.33;10.27;;;;;;;12.59;83.72;95244.03;5070757;28;20655;-60
2022/11/02 06:25:31;;;;;;;20.93;9.17;;;;;;;12.68;83.73;95250.09;5070632;28;20638;-61
2022/11/02 06:27:57;;;;;;;26.73;10.77;;;;;;;12.55;84.07;95240.09;5070738;28;20235;-61
2022/11/02 06:30:23;;;;;;;22.80;10.47;;;;;;;12.79;82.46;95272.97;5070364;28;20262;-60
2022/11/02 06:32:51;;;;;;;25.60;9.37;;;;;;;13.01;80.75;95310.28;5070545;28;20177;-59
2022/11/02 06:35:18;;;;;;;17.03;5.27;;;;;;;12.87;77.95;95343.78;5069364;28;20212;-60
2022/11/02 06:37:44;;;;;;;13.57;5.37;;;;;;;12.91;78.06;95343.41;5068830;28;20275;-61
2022/11/02 06:40:11;;;;;;;20.77;7.07;;;;;;;12.99;79.01;95320.59;5070840;28;20308;-61
2022/11/02 06:42:36;;;;;;;20.20;8.60;;;;;;;13.22;78.29;95324.63;5072221;28;20230;-61
2022/11/02 06:45:02;;;;;;;25.27;9.67;;;;;;;13.25;79.64;95305.69;5072078;28;20209;-62
2022/11/02 06:47:30;;;;;;;15.07;7.20;;;;;;;13.44;77.94;95342.31;5073995;28;20169;-60
2022/11/02 06:49:56;;;;;;;14.43;5.70;;;;;;;13.55;75.46;95376.34;5074046;28;20231;-58
2022/11/02 06:52:22;;;;;;;18.45;5.28;;;;;;;13.75;75.40;95390.78;5056005;28;20567;-58
2022/11/02 06:54:47;;;;;;;10.43;4.90;;;;;;;13.84;74.64;95382.31;5073949;28;20281;-61
2022/11/02 06:57:12;;;;;;;10.13;5.13;;;;;;;13.84;75.88;95347.34;5073786;28;20188;-62
2022/11/02 06:59:38;;;;;;;13.30;5.40;;;;;;;13.85;75.07;95356.66;5073954;28;20325;-63
2022/11/02 07:02:03;;;;;;;15.93;6.40;;;;;;;13.99;75.71;95342.66;5073700;28;20181;-61
2022/11/02 07:04:28;;;;;;;18.42;5.75;;;;;;;14.06;74.21;95382.91;5073465;28;20622;-61
2022/11/02 07:06:54;;;;;;;15.60;6.38;;;;;;;14.04;74.39;95366.06;5073590;28;20195;-62
2022/11/02 07:09:19;;;;;;;14.65;5.80;;;;;;;14.01;74.00;95371.47;5073691;28;20286;-61
2022/11/02 07:11:45;;;;;;;13.20;5.73;;;;;;;14.09;74.64;95351.16;5073530;28;20256;-58
2022/11/02 07:14:10;;;;;;;18.55;6.13;;;;;;;14.23;74.83;95351.56;5073490;28;20561;-58
2022/11/02 07:16:35;;;;;;;9.50;6.20;;;;;;;14.37;73.49;95381.06;5055397;28;20409;-60
2022/11/02 07:19:01;;;;;;;16.02;6.00;;;;;;;14.49;73.64;95387.66;5073635;28;20216;-61
2022/11/02 07:21:27;;;;;;;15.20;6.78;;;;;;;14.64;72.76;95388.88;5073410;28;20264;-60
2022/11/02 07:23:52;;;;;;;16.60;6.60;;;;;;;14.83;72.14;95404.19;5073343;28;20296;-62
2022/11/02 07:26:18;;;;;;;12.60;6.55;;;;;;;14.94;72.55;95401.50;5073276;28;20181;-62
2022/11/02 07:28:45;;;;;;;20.60;8.32;;;;;;;15.15;71.25;95422.59;5073547;28;20185;-61
2022/11/02 07:31:10;;;;;;;19.33;8.40;;;;;;;15.33;70.42;95437.25;5073525;28;20189;-61
2022/11/02 07:33:35;;;;;;;20.92;10.50;;;;;;;15.53;69.13;95470.41;5073283;28;20185;-61
2022/11/02 07:36:05;;;;;;;17.98;10.18;;;;;;;15.60;68.36;95478.34;5073200;28;20272;-60
2022/11/02 07:38:30;;;;;;;28.08;11.55;;;;;;;15.64;68.63;95459.97;5073177;28;20177;-60
2022/11/02 07:40:55;;;;;;;32.53;11.82;;;;;;;15.61;68.45;95460.28;5073171;28;20547;-59
2022/11/02 07:43:21;;;;;;;25.35;11.48;;;;;;;16.00;67.08;95494.22;5073179;28;20589;-61
2022/11/02 07:45:46;;;;;;;24.38;12.02;;;;;;;16.27;66.35;95496.81;5055205;28;20220;-60
2022/11/02 07:48:12;;;;;;;24.63;10.73;;;;;;;16.47;65.68;95507.75;5071659;28;20232;-61
2022/11/02 07:50:37;;;;;;;22.55;10.75;;;;;;;16.67;64.18;95538.34;5072737;28;20208;-61
2022/11/02 07:53:03;;;;;;;32.47;11.63;;;;;;;16.63;65.00;95508.78;5072691;28;20203;-61
2022/11/02 07:55:29;;;;;;;29.02;12.07;;;;;;;16.98;63.30;95548.28;5072882;28;20699;-61
2022/11/02 07:58:00;;;;;;;32.50;13.45;;;;;;;17.18;62.55;95554.88;5072920;28;20188;-61
2022/11/02 08:00:31;;;;;;;38.53;13.02;;;;;;;17.38;62.00;95558.88;5072854;28;20294;-62
2022/11/02 08:02:58;;;;;;;35.20;12.43;;;;;;;17.50;62.17;95544.88;5072928;28;20209;-62
2022/11/02 08:05:25;;;;;;;32.88;11.73;;;;;;;17.83;61.41;95557.00;5073090;28;20216;-61
2022/11/02 08:08:01;;;;;;;33.42;12.88;;;;;;;18.13;59.88;95595.13;5072510;28;20189;-62
2022/11/02 08:10:29;;;;;;;34.83;12.18;;;;;;;18.44;58.52;95631.53;5072963;28;20695;-62
2022/11/02 08:12:55;;;;;;;32.25;17.30;;;;;;;18.78;58.16;95621.19;5072542;28;20195;-61
2022/11/02 08:15:21;;;;;;;50.22;23.60;;;;;;;18.89;58.24;95605.44;5072499;28;20251;-61
2022/11/02 08:17:47;;;;;;;37.63;14.10;;;;;;;19.10;56.83;95631.59;5072533;28;20659;-63
2022/11/02 08:20:12;;;;;;;30.13;12.75;;;;;;;19.41;54.43;95691.19;5072548;28;20219;-62
2022/11/02 08:22:38;;;;;;;48.13;23.15;;;;;;;19.51;55.98;95617.03;5054489;28;20173;-63
2022/11/02 08:25:05;;;;;;;43.42;13.73;;;;;;;19.67;55.43;95632.50;5054371;28;20227;-63
2022/11/02 08:27:30;;;;;;;26.25;12.20;;;;;;;19.89;53.01;95698.97;5054332;28;20200;-62
2022/11/02 08:29:56;;;;;;;41.80;13.95;;;;;;;20.03;53.48;95663.00;5072769;28;20209;-61
2022/11/02 08:32:21;;;;;;;31.00;15.43;;;;;;;20.22;52.00;95702.38;5071250;28;20204;-62
2022/11/02 08:34:47;;;;;;;35.92;12.73;;;;;;;20.40;51.63;95697.84;5072203;28;20690;-60
2022/11/02 08:37:12;;;;;;;27.85;12.55;;;;;;;20.55;52.51;95668.56;5072419;28;20234;-61
2022/11/02 08:39:37;;;;;;;27.10;13.23;;;;;;;20.59;51.36;95700.88;5072268;28;20231;-60
2022/11/02 08:42:03;;;;;;;27.05;12.70;;;;;;;20.92;50.73;95709.34;5072356;28;20185;-62
2022/11/02 08:44:28;;;;;;;35.03;12.98;;;;;;;21.26;50.01;95729.75;5072245;28;20217;-61
2022/11/02 08:46:54;;;;;;;29.85;12.50;;;;;;;21.56;48.33;95775.53;5072077;28;20177;-63
2022/11/02 08:49:20;;;;;;;26.80;12.25;;;;;;;21.98;47.80;95778.56;5071953;28;20277;-62
2022/11/02 08:51:45;;;;;;;27.90;11.88;;;;;;;22.17;47.67;95761.75;5072070;28;20192;-62
2022/11/02 08:54:11;;;;;;;23.67;11.57;;;;;;;22.52;46.38;95816.38;5072136;28;20393;-61
2022/11/02 08:56:37;;;;;;;28.27;13.20;;;;;;;22.62;46.34;95798.03;5071948;28;20642;-60
2022/11/02 08:59:02;;;;;;;24.83;12.23;;;;;;;22.71;45.86;95789.19;5071959;28;20510;-59
2022/11/02 09:01:28;;;;;;;38.83;13.57;;;;;;;22.68;44.86;95822.44;5072104;28;20604;-60
2022/11/02 09:03:53;;;;;;;21.70;12.57;;;;;;;22.87;46.02;95796.00;5071397;28;20654;-61
2022/11/02 09:06:18;;;;;;;25.30;11.73;;;;;;;22.89;46.21;95774.09;5071507;28;20177;-61
2022/11/02 09:08:44;;;;;;;31.60;12.35;;;;;;;22.87;45.64;95776.06;5071694;28;20193;-59
2022/11/02 09:11:09;;;;;;;32.60;12.02;;;;;;;22.91;45.17;95790.28;5071675;28;20570;-61
2022/11/02 09:13:36;;;;;;;27.73;12.30;;;;;;;22.64;44.24;95819.41;5071714;28;20185;-61
2022/11/02 09:16:02;;;;;;;29.85;12.27;;;;;;;23.22;45.43;95771.97;5071584;28;20271;-61
2022/11/02 09:18:28;;;;;;;32.42;11.90;;;;;;;23.33;44.12;95826.84;5071790;28;20216;-60
2022/11/02 09:20:53;;;;;;;32.13;11.82;;;;;;;23.53;44.80;95772.59;5071513;28;20279;-59
2022/11/02 09:23:20;;;;;;;28.45;12.85;;;;;;;23.71;44.42;95780.81;5071533;28;20604;-61
2022/11/02 09:25:46;;;;;;;30.33;11.55;;;;;;;23.90;43.74;95795.78;5071378;28;20222;-59
2022/11/02 09:28:13;;;;;;;26.52;11.68;;;;;;;24.27;43.02;95822.56;5071484;28;20181;-61
2022/11/02 09:30:39;;;;;;;28.60;11.07;;;;;;;24.44;42.06;95852.56;5071471;28;20238;-62
2022/11/02 09:33:05;;;;;;;34.53;11.55;;;;;;;24.57;42.53;95824.06;5071437;28;20184;-62
2022/11/02 09:35:34;;;;;;;30.60;11.73;;;;;;;24.82;41.32;95813.13;5071345;28;20200;-61
2022/11/02 09:37:59;;;;;;;30.60;11.50;;;;;;;24.99;41.04;95785.78;5071230;28;20216;-61
2022/11/02 09:40:35;;;;;;;37.42;12.57;;;;;;;25.05;41.48;95752.19;5071457;28;20251;-61
2022/11/02 09:43:18;;;;;;;23.60;11.07;;;;;;;25.16;42.09;95710.81;5071160;28;20667;-61
2022/11/02 09:45:49;;;;;;;27.52;12.18;;;;;;;25.43;40.66;95746.38;5053256;28;20266;-61
2022/11/02 09:48:27;;;;;;;26.00;12.02;;;;;;;25.54;40.40;95725.00;5071356;28;21097;-61
2022/11/02 09:50:55;;;;;;;24.48;10.77;;;;;;;25.60;41.02;95697.34;5071183;28;20212;-63
2022/11/02 09:53:41;;;;;;;23.58;11.23;;;;;;;25.58;39.00;95752.28;5071260;28;20852;-59
2022/11/02 09:56:09;;;;;;;30.42;11.63;;;;;;;25.44;39.42;95718.56;5071240;28;20184;-59
2022/11/02 09:58:38;;;;;;;25.60;11.38;;;;;;;25.60;38.57;95750.28;5071235;28;20193;-61
2022/11/02 10:01:27;;;;;;;29.40;11.60;;;;;;;25.68;39.12;95705.00;5071072;28;20184;-62
2022/11/02 10:04:01;;;;;;;30.90;11.93;;;;;;;25.57;39.74;95672.50;5071232;28;20299;-60
2022/11/02 10:06:29;;;;;;;27.10;11.77;;;;;;;25.59;39.68;95662.69;5071013;28;20275;-60
2022/11/02 10:08:54;;;;;;;21.77;11.48;;;;;;;25.66;39.01;95681.75;5052926;28;20262;-61
2022/11/02 10:11:50;;;;;;;25.05;12.00;;;;;;;25.75;38.08;95711.03;5070817;28;20197;-60
2022/11/02 10:14:29;;;;;;;28.88;12.02;;;;;;;25.13;38.85;95669.53;5070975;28;20262;-61
2022/11/02 10:17:14;;;;;;;21.33;11.18;;;;;;;25.44;37.96;95685.50;5069938;28;20187;-59
2022/11/02 10:19:45;;;;;;;25.95;12.18;;;;;;;25.85;37.55;95711.47;5070868;28;20261;-59
2022/11/02 10:22:14;;;;;;;32.65;13.10;;;;;;;25.84;37.79;95688.22;5070909;28;20637;-62
2022/11/02 10:24:43;;;;;;;28.20;12.07;;;;;;;25.89;37.11;95712.66;5070952;28;20216;-60
2022/11/02 10:27:32;;;;;;;31.05;11.60;;;;;;;26.09;37.74;95669.22;5052499;28;20618;-59
2022/11/02 10:30:05;;;;;;;27.52;12.60;;;;;;;26.38;37.03;95697.47;5070955;28;20209;-59
2022/11/02 10:32:34;;;;;;;27.77;11.65;;;;;;;26.64;36.65;95700.06;5070836;28;20184;-58
2022/11/02 10:35:02;;;;;;;26.58;11.52;;;;;;;26.81;36.80;95670.94;5070547;28;20209;-59
2022/11/02 10:37:54;;;;;;;35.80;12.82;;;;;;;26.42;36.13;95701.28;5070639;28;20654;-59
2022/11/02 10:40:42;;;;;;;27.10;10.90;;;;;;;26.14;36.28;95679.81;5070595;28;20219;-61
2022/11/02 10:43:17;;;;;;;19.88;10.25;;;;;;;26.36;36.23;95680.44;5070830;28;20693;-62
2022/11/02 10:46:01;;;;;;;26.42;11.10;;;;;;;26.47;36.40;95672.78;5070400;28;20203;-59
2022/11/02 10:48:42;;;;;;;26.77;10.57;;;;;;;26.60;35.88;95683.19;5070667;28;20191;-62
2022/11/02 10:51:11;;;;;;;27.20;9.98;;;;;;;26.68;35.38;95695.25;5070470;28;20181;-61
2022/11/02 10:53:46;;;;;;;27.33;10.85;;;;;;;26.71;36.03;95652.25;5070346;28;20191;-60
2022/11/02 10:56:22;;;;;;;25.67;9.55;;;;;;;26.30;35.67;95655.94;5069003;28;20724;-61
2022/11/02 10:59:12;;;;;;;31.83;9.60;;;;;;;26.11;35.95;95648.16;5052360;28;20198;-62
2022/11/02 11:01:44;;;;;;;21.98;8.57;;;;;;;26.28;35.02;95691.84;5070312;28;20188;-62
2022/11/02 11:04:25;;;;;;;20.70;8.70;;;;;;;26.62;34.62;95669.97;5070219;28;20221;-61
2022/11/02 11:06:52;;;;;;;24.23;8.52;;;;;;;26.71;34.47;95662.69;5070494;28;20181;-61
2022/11/02 11:09:38;;;;;;;16.58;7.80;;;;;;;26.99;34.78;95642.38;5070393;28;20219;-61
2022/11/02 11:12:06;;;;;;;19.85;8.80;;;;;;;27.01;33.90;95651.59;5069986;28;20256;-60
2022/11/02 11:14:38;;;;;;;19.20;8.75;;;;;;;26.93;34.21;95627.53;5070328;28;20213;-60
2022/11/02 11:17:15;;;;;;;22.25;9.45;;;;;;;26.87;34.72;95607.47;5070013;28;20219;-60
2022/11/02 11:19:47;;;;;;;24.02;9.30;;;;;;;27.00;34.22;95621.28;5069954;28;20234;-59
2022/11/02 11:22:27;;;;;;;15.55;8.50;;;;;;;27.18;33.68;95625.81;5070283;28;20193;-59
2022/11/02 11:25:13;;;;;;;15.02;7.20;;;;;;;26.94;32.98;95631.75;5069718;28;20220;-59
2022/11/02 11:27:47;;;;;;;18.55;8.02;;;;;;;27.08;33.56;95610.63;5070549;28;20193;-58
2022/11/02 11:30:34;;;;;;;25.75;7.85;;;;;;;26.89;33.13;95608.06;5073073;28;20209;-61
2022/11/02 11:33:02;;;;;;;17.75;7.35;;;;;;;27.13;33.23;95596.94;5073245;28;20647;-61
2022/11/02 11:35:37;;;;;;;15.27;6.32;;;;;;;27.41;32.82;95611.25;5055163;28;20259;-60
2022/11/02 11:38:08;;;;;;;16.65;6.07;;;;;;;26.87;31.43;95597.84;5073338;28;20193;-62
2022/11/02 11:40:38;;;;;;;15.85;4.93;;;;;;;26.69;30.98;95445.50;5073250;28;20308;-60
2022/11/02 11:43:08;;;;;;;16.30;4.97;;;;;;;26.47;31.46;95419.75;5073114;28;20238;-60
2022/11/02 11:45:34;;;;;;;15.98;4.75;;;;;;;26.55;31.55;95403.06;5072915;28;20213;-59
2022/11/02 11:48:18;;;;;;;14.15;4.43;;;;;;;26.95;31.22;95416.66;5072935;28;20185;-59